sensor_id;sensor_type;location;lat;lon;timestamp;pressure;altitude;pressure_sealevel;temperature;humidity
16525;BME280;8375;33.594;-117.718;2023-04-05T00:00:35;100583.34;;;14.97;37.22
16525;BME280;8375;33.594;-117.718;2023-04-05T00:03:03;100581.31;;;15.01;38.71
16525;BME280;8375;33.594;-117.718;2023-04-05T00:05:35;100577.03;;;14.90;39.00
16525;BME280;8375;33.594;-117.718;2023-04-05T00:08:05;100581.44;;;14.79;39.64
16525;BME280;8375;33.594;-117.718;2023-04-05T00:10:39;100586.47;;;14.61;38.83
16525;BME280;8375;33.594;-117.718;2023-04-05T00:13:07;100582.47;;;14.57;39.04
16525;BME280;8375;33.594;-117.718;2023-04-05T00:15:38;100577.94;;;14.59;39.90
16525;BME280;8375;33.594;-117.718;2023-04-05T00:18:06;100581.63;;;14.57;39.69
16525;BME280;8375;33.594;-117.718;2023-04-05T00:20:47;100583.81;;;14.42;41.17
16525;BME280;8375;33.594;-117.718;2023-04-05T00:23:16;100580.38;;;14.41;41.54
16525;BME280;8375;33.594;-117.718;2023-04-05T00:25:46;100588.47;;;14.28;41.13
16525;BME280;8375;33.594;-117.718;2023-04-05T00:28:15;100584.47;;;14.34;40.85
16525;BME280;8375;33.594;-117.718;2023-04-05T00:30:45;100575.81;;;14.33;40.20
16525;BME280;8375;33.594;-117.718;2023-04-05T00:33:14;100578.41;;;14.23;41.96
16525;BME280;8375;33.594;-117.718;2023-04-05T00:35:42;100576.06;;;14.20;42.69
16525;BME280;8375;33.594;-117.718;2023-04-05T00:38:11;100582.28;;;14.29;42.91
16525;BME280;8375;33.594;-117.718;2023-04-05T00:40:40;100578.56;;;14.32;43.18
16525;BME280;8375;33.594;-117.718;2023-04-05T00:43:08;100578.81;;;14.19;42.98
16525;BME280;8375;33.594;-117.718;2023-04-05T00:45:37;100579.06;;;14.16;42.99
16525;BME280;8375;33.594;-117.718;2023-04-05T00:48:08;100579.63;;;14.19;43.69
16525;BME280;8375;33.594;-117.718;2023-04-05T00:50:37;100587.28;;;14.11;43.18
16525;BME280;8375;33.594;-117.718;2023-04-05T00:53:06;100583.97;;;14.09;43.69
16525;BME280;8375;33.594;-117.718;2023-04-05T00:55:35;100580.69;;;14.07;44.20
16525;BME280;8375;33.594;-117.718;2023-04-05T00:58:04;100576.25;;;13.98;44.02
16525;BME280;8375;33.594;-117.718;2023-04-05T01:00:36;100580.34;;;13.90;45.25
16525;BME280;8375;33.594;-117.718;2023-04-05T01:03:08;100584.16;;;13.86;44.67
16525;BME280;8375;33.594;-117.718;2023-04-05T01:05:41;100580.66;;;13.97;44.43
16525;BME280;8375;33.594;-117.718;2023-04-05T01:08:17;100580.50;;;13.99;43.39
16525;BME280;8375;33.594;-117.718;2023-04-05T01:10:53;100587.63;;;13.97;44.47
16525;BME280;8375;33.594;-117.718;2023-04-05T01:13:24;100590.91;;;13.89;44.26
16525;BME280;8375;33.594;-117.718;2023-04-05T01:15:53;100596.72;;;13.71;45.58
16525;BME280;8375;33.594;-117.718;2023-04-05T01:18:23;100593.53;;;13.68;45.79
16525;BME280;8375;33.594;-117.718;2023-04-05T01:20:58;100600.28;;;13.70;46.44
16525;BME280;8375;33.594;-117.718;2023-04-05T01:23:47;100597.75;;;13.59;45.88
16525;BME280;8375;33.594;-117.718;2023-04-05T01:26:38;100599.84;;;13.44;46.10
16525;BME280;8375;33.594;-117.718;2023-04-05T01:32:30;100598.59;;;13.27;43.95
16525;BME280;8375;33.594;-117.718;2023-04-05T01:35:09;100592.72;;;13.13;45.14
16525;BME280;8375;33.594;-117.718;2023-04-05T01:37:41;100597.06;;;12.91;43.83
16525;BME280;8375;33.594;-117.718;2023-04-05T01:40:12;100606.06;;;12.87;44.54
16525;BME280;8375;33.594;-117.718;2023-04-05T01:42:43;100603.47;;;12.87;44.05
16525;BME280;8375;33.594;-117.718;2023-04-05T01:45:13;100602.19;;;12.82;43.79
16525;BME280;8375;33.594;-117.718;2023-04-05T01:47:43;100615.25;;;12.70;44.55
16525;BME280;8375;33.594;-117.718;2023-04-05T01:50:12;100617.63;;;12.62;45.22
16525;BME280;8375;33.594;-117.718;2023-04-05T01:52:41;100617.03;;;12.58;45.40
16525;BME280;8375;33.594;-117.718;2023-04-05T01:55:09;100621.19;;;12.50;45.53
16525;BME280;8375;33.594;-117.718;2023-04-05T01:57:38;100630.91;;;12.47;45.63
16525;BME280;8375;33.594;-117.718;2023-04-05T02:00:08;100619.56;;;12.37;45.65
16525;BME280;8375;33.594;-117.718;2023-04-05T02:02:37;100629.38;;;12.33;47.30
16525;BME280;8375;33.594;-117.718;2023-04-05T02:05:08;100623.69;;;12.28;46.43
16525;BME280;8375;33.594;-117.718;2023-04-05T02:07:37;100620.84;;;12.20;47.04
16525;BME280;8375;33.594;-117.718;2023-04-05T02:10:06;100626.53;;;12.14;47.70
16525;BME280;8375;33.594;-117.718;2023-04-05T02:12:35;100617.41;;;11.97;47.50
16525;BME280;8375;33.594;-117.718;2023-04-05T02:15:05;100622.47;;;11.98;46.45
16525;BME280;8375;33.594;-117.718;2023-04-05T02:17:33;100623.88;;;11.91;48.11
16525;BME280;8375;33.594;-117.718;2023-04-05T02:20:07;100619.97;;;11.85;48.53
16525;BME280;8375;33.594;-117.718;2023-04-05T02:22:37;100619.13;;;11.73;48.57
16525;BME280;8375;33.594;-117.718;2023-04-05T02:25:07;100619.47;;;11.69;48.48
16525;BME280;8375;33.594;-117.718;2023-04-05T02:27:36;100626.66;;;11.65;48.06
16525;BME280;8375;33.594;-117.718;2023-04-05T02:30:05;100627.03;;;11.61;48.36
16525;BME280;8375;33.594;-117.718;2023-04-05T02:32:34;100630.66;;;11.58;49.70
16525;BME280;8375;33.594;-117.718;2023-04-05T02:35:03;100634.44;;;11.54;48.47
16525;BME280;8375;33.594;-117.718;2023-04-05T02:37:34;100627.09;;;11.48;49.01
16525;BME280;8375;33.594;-117.718;2023-04-05T02:40:05;100634.16;;;11.45;48.58
16525;BME280;8375;33.594;-117.718;2023-04-05T02:42:35;100628.72;;;11.37;49.14
16525;BME280;8375;33.594;-117.718;2023-04-05T02:45:04;100626.25;;;11.36;48.80
16525;BME280;8375;33.594;-117.718;2023-04-05T02:47:33;100638.63;;;11.32;49.60
16525;BME280;8375;33.594;-117.718;2023-04-05T02:50:02;100638.25;;;11.25;50.15
16525;BME280;8375;33.594;-117.718;2023-04-05T02:52:33;100636.91;;;11.20;49.55
16525;BME280;8375;33.594;-117.718;2023-04-05T02:55:03;100639.00;;;11.14;50.03
16525;BME280;8375;33.594;-117.718;2023-04-05T02:57:32;100643.94;;;11.06;50.66
16525;BME280;8375;33.594;-117.718;2023-04-05T03:00:01;100645.72;;;11.06;51.94
16525;BME280;8375;33.594;-117.718;2023-04-05T03:02:30;100652.56;;;11.07;51.15
16525;BME280;8375;33.594;-117.718;2023-04-05T03:04:59;100652.88;;;11.02;51.61
16525;BME280;8375;33.594;-117.718;2023-04-05T03:07:28;100660.09;;;10.98;53.71
16525;BME280;8375;33.594;-117.718;2023-04-05T03:10:00;100664.56;;;10.96;52.38
16525;BME280;8375;33.594;-117.718;2023-04-05T03:12:28;100666.03;;;10.88;53.09
16525;BME280;8375;33.594;-117.718;2023-04-05T03:14:57;100667.09;;;10.85;54.20
16525;BME280;8375;33.594;-117.718;2023-04-05T03:17:26;100667.41;;;10.80;54.61
16525;BME280;8375;33.594;-117.718;2023-04-05T03:19:54;100669.91;;;10.82;54.45
16525;BME280;8375;33.594;-117.718;2023-04-05T03:22:23;100678.84;;;10.78;54.57
16525;BME280;8375;33.594;-117.718;2023-04-05T03:24:52;100682.47;;;10.75;54.74
16525;BME280;8375;33.594;-117.718;2023-04-05T03:27:24;100685.28;;;10.72;55.15
16525;BME280;8375;33.594;-117.718;2023-04-05T03:29:54;100688.22;;;10.67;56.28
16525;BME280;8375;33.594;-117.718;2023-04-05T03:32:23;100692.06;;;10.62;56.39
16525;BME280;8375;33.594;-117.718;2023-04-05T03:34:51;100698.28;;;10.59;56.15
16525;BME280;8375;33.594;-117.718;2023-04-05T03:37:20;100691.84;;;10.52;56.09
16525;BME280;8375;33.594;-117.718;2023-04-05T03:39:49;100698.81;;;10.51;56.61
16525;BME280;8375;33.594;-117.718;2023-04-05T03:42:18;100693.00;;;10.48;56.76
16525;BME280;8375;33.594;-117.718;2023-04-05T03:44:51;100697.66;;;10.42;56.83
16525;BME280;8375;33.594;-117.718;2023-04-05T03:47:20;100701.50;;;10.37;57.44
16525;BME280;8375;33.594;-117.718;2023-04-05T03:49:48;100699.19;;;10.32;58.04
16525;BME280;8375;33.594;-117.718;2023-04-05T03:52:17;100699.41;;;10.29;58.75
16525;BME280;8375;33.594;-117.718;2023-04-05T03:54:46;100709.19;;;10.25;58.83
16525;BME280;8375;33.594;-117.718;2023-04-05T03:57:15;100707.50;;;10.24;59.70
16525;BME280;8375;33.594;-117.718;2023-04-05T03:59:43;100712.06;;;10.21;60.21
16525;BME280;8375;33.594;-117.718;2023-04-05T04:02:14;100707.50;;;10.11;60.30
16525;BME280;8375;33.594;-117.718;2023-04-05T04:04:42;100698.47;;;10.04;60.18
16525;BME280;8375;33.594;-117.718;2023-04-05T04:07:12;100706.34;;;10.03;60.54
16525;BME280;8375;33.594;-117.718;2023-04-05T04:09:41;100705.72;;;9.99;60.62
16525;BME280;8375;33.594;-117.718;2023-04-05T04:12:10;100701.88;;;9.92;61.09
16525;BME280;8375;33.594;-117.718;2023-04-05T04:14:38;100709.75;;;9.90;61.53
16525;BME280;8375;33.594;-117.718;2023-04-05T04:17:07;100703.13;;;9.86;62.39
16525;BME280;8375;33.594;-117.718;2023-04-05T04:19:38;100708.09;;;9.89;63.54
16525;BME280;8375;33.594;-117.718;2023-04-05T04:22:06;100710.06;;;9.86;62.69
16525;BME280;8375;33.594;-117.718;2023-04-05T04:24:35;100702.06;;;9.89;64.08
16525;BME280;8375;33.594;-117.718;2023-04-05T04:27:04;100704.56;;;9.90;64.33
16525;BME280;8375;33.594;-117.718;2023-04-05T04:29:36;100713.56;;;9.84;63.73
16525;BME280;8375;33.594;-117.718;2023-04-05T04:32:12;100711.19;;;9.81;63.93
16525;BME280;8375;33.594;-117.718;2023-04-05T04:34:42;100711.59;;;9.75;63.46
16525;BME280;8375;33.594;-117.718;2023-04-05T04:37:13;100714.03;;;9.64;65.84
16525;BME280;8375;33.594;-117.718;2023-04-05T04:39:44;100714.34;;;9.59;64.64
16525;BME280;8375;33.594;-117.718;2023-04-05T04:42:14;100710.38;;;9.53;64.50
16525;BME280;8375;33.594;-117.718;2023-04-05T04:44:45;100708.44;;;9.57;65.62
16525;BME280;8375;33.594;-117.718;2023-04-05T04:47:14;100716.09;;;9.59;66.12
16525;BME280;8375;33.594;-117.718;2023-04-05T04:49:44;100713.09;;;9.52;65.61
16525;BME280;8375;33.594;-117.718;2023-04-05T04:52:13;100712.34;;;9.50;65.89
16525;BME280;8375;33.594;-117.718;2023-04-05T04:54:42;100708.84;;;9.51;67.07
16525;BME280;8375;33.594;-117.718;2023-04-05T04:57:13;100709.03;;;9.48;67.69
16525;BME280;8375;33.594;-117.718;2023-04-05T04:59:41;100711.81;;;9.45;68.05
16525;BME280;8375;33.594;-117.718;2023-04-05T05:02:10;100704.25;;;9.42;68.14
16525;BME280;8375;33.594;-117.718;2023-04-05T05:04:39;100697.69;;;9.36;68.04
16525;BME280;8375;33.594;-117.718;2023-04-05T05:07:10;100703.16;;;9.31;68.60
16525;BME280;8375;33.594;-117.718;2023-04-05T05:09:39;100699.19;;;9.25;68.82
16525;BME280;8375;33.594;-117.718;2023-04-05T05:12:07;100703.00;;;9.20;68.78
16525;BME280;8375;33.594;-117.718;2023-04-05T05:14:36;100708.28;;;9.18;68.70
16525;BME280;8375;33.594;-117.718;2023-04-05T05:17:05;100695.13;;;9.21;69.83
16525;BME280;8375;33.594;-117.718;2023-04-05T05:19:34;100695.63;;;9.14;69.75
16525;BME280;8375;33.594;-117.718;2023-04-05T05:22:02;100694.69;;;9.15;69.92
16525;BME280;8375;33.594;-117.718;2023-04-05T05:24:33;100695.53;;;9.15;69.74
16525;BME280;8375;33.594;-117.718;2023-04-05T05:27:01;100702.66;;;9.12;70.06
16525;BME280;8375;33.594;-117.718;2023-04-05T05:29:30;100706.66;;;9.03;70.65
16525;BME280;8375;33.594;-117.718;2023-04-05T05:32:00;100704.34;;;8.98;71.07
16525;BME280;8375;33.594;-117.718;2023-04-05T05:34:28;100695.13;;;8.94;70.78
16525;BME280;8375;33.594;-117.718;2023-04-05T05:36:58;100696.03;;;8.93;71.23
16525;BME280;8375;33.594;-117.718;2023-04-05T05:39:27;100705.00;;;8.87;71.71
16525;BME280;8375;33.594;-117.718;2023-04-05T05:41:57;100715.56;;;8.84;72.43
16525;BME280;8375;33.594;-117.718;2023-04-05T05:44:26;100714.06;;;8.80;72.75
16525;BME280;8375;33.594;-117.718;2023-04-05T05:46:54;100707.63;;;8.73;73.05
16525;BME280;8375;33.594;-117.718;2023-04-05T05:49:23;100699.78;;;8.74;73.26
16525;BME280;8375;33.594;-117.718;2023-04-05T05:51:52;100706.88;;;8.71;73.57
16525;BME280;8375;33.594;-117.718;2023-04-05T05:54:22;100707.72;;;8.71;74.05
16525;BME280;8375;33.594;-117.718;2023-04-05T05:56:51;100698.72;;;8.77;74.97
16525;BME280;8375;33.594;-117.718;2023-04-05T05:59:21;100704.66;;;8.79;75.38
16525;BME280;8375;33.594;-117.718;2023-04-05T06:01:50;100711.78;;;8.75;74.94
16525;BME280;8375;33.594;-117.718;2023-04-05T06:04:19;100703.47;;;8.70;74.99
16525;BME280;8375;33.594;-117.718;2023-04-05T06:06:48;100702.63;;;8.70;74.69
16525;BME280;8375;33.594;-117.718;2023-04-05T06:09:18;100702.81;;;8.66;73.93
16525;BME280;8375;33.594;-117.718;2023-04-05T06:11:50;100698.84;;;8.61;74.18
16525;BME280;8375;33.594;-117.718;2023-04-05T06:14:19;100705.03;;;8.58;74.49
16525;BME280;8375;33.594;-117.718;2023-04-05T06:16:49;100703.75;;;8.51;74.75
16525;BME280;8375;33.594;-117.718;2023-04-05T06:19:18;100699.56;;;8.48;74.69
16525;BME280;8375;33.594;-117.718;2023-04-05T06:21:47;100699.41;;;8.51;74.03
16525;BME280;8375;33.594;-117.718;2023-04-05T06:24:15;100700.66;;;8.44;75.00
16525;BME280;8375;33.594;-117.718;2023-04-05T06:26:44;100703.63;;;8.38;75.84
16525;BME280;8375;33.594;-117.718;2023-04-05T06:29:13;100687.44;;;8.34;76.04
16525;BME280;8375;33.594;-117.718;2023-04-05T06:31:41;100694.75;;;8.28;75.87
16525;BME280;8375;33.594;-117.718;2023-04-05T06:34:13;100689.84;;;8.23;76.08
16525;BME280;8375;33.594;-117.718;2023-04-05T06:36:42;100687.22;;;8.08;76.90
16525;BME280;8375;33.594;-117.718;2023-04-05T06:39:12;100687.16;;;8.10;77.35
16525;BME280;8375;33.594;-117.718;2023-04-05T06:41:40;100691.41;;;8.11;77.41
16525;BME280;8375;33.594;-117.718;2023-04-05T06:44:09;100689.63;;;8.12;77.85
16525;BME280;8375;33.594;-117.718;2023-04-05T06:46:38;100684.63;;;8.08;77.82
16525;BME280;8375;33.594;-117.718;2023-04-05T06:49:07;100687.22;;;8.08;77.42
16525;BME280;8375;33.594;-117.718;2023-04-05T06:51:37;100683.16;;;8.04;77.21
16525;BME280;8375;33.594;-117.718;2023-04-05T06:54:06;100681.94;;;7.96;76.42
16525;BME280;8375;33.594;-117.718;2023-04-05T06:56:35;100679.44;;;7.94;77.07
16525;BME280;8375;33.594;-117.718;2023-04-05T06:59:04;100682.19;;;7.91;76.53
16525;BME280;8375;33.594;-117.718;2023-04-05T07:01:33;100676.47;;;7.86;76.32
16525;BME280;8375;33.594;-117.718;2023-04-05T07:04:02;100678.94;;;7.87;76.04
16525;BME280;8375;33.594;-117.718;2023-04-05T07:06:31;100676.47;;;7.86;76.28
16525;BME280;8375;33.594;-117.718;2023-04-05T07:09:06;100682.63;;;7.83;75.62
16525;BME280;8375;33.594;-117.718;2023-04-05T07:11:35;100674.75;;;7.70;74.65
16525;BME280;8375;33.594;-117.718;2023-04-05T07:14:05;100675.34;;;7.75;76.21
16525;BME280;8375;33.594;-117.718;2023-04-05T07:16:34;100670.72;;;7.81;76.78
16525;BME280;8375;33.594;-117.718;2023-04-05T07:19:03;100674.06;;;7.83;77.06
16525;BME280;8375;33.594;-117.718;2023-04-05T07:21:33;100667.97;;;7.84;75.95
16525;BME280;8375;33.594;-117.718;2023-04-05T07:24:01;100669.25;;;7.76;74.75
16525;BME280;8375;33.594;-117.718;2023-04-05T07:26:33;100672.94;;;7.72;74.83
16525;BME280;8375;33.594;-117.718;2023-04-05T07:29:03;100671.22;;;7.57;75.10
16525;BME280;8375;33.594;-117.718;2023-04-05T07:31:33;100669.44;;;7.57;76.11
16525;BME280;8375;33.594;-117.718;2023-04-05T07:34:02;100666.22;;;7.54;76.02
16525;BME280;8375;33.594;-117.718;2023-04-05T07:36:31;100671.56;;;7.51;75.47
16525;BME280;8375;33.594;-117.718;2023-04-05T07:39:00;100670.50;;;7.39;76.60
16525;BME280;8375;33.594;-117.718;2023-04-05T07:41:29;100670.59;;;7.37;76.79
16525;BME280;8375;33.594;-117.718;2023-04-05T07:44:02;100668.94;;;7.36;78.06
16525;BME280;8375;33.594;-117.718;2023-04-05T07:46:31;100672.19;;;7.24;77.29
16525;BME280;8375;33.594;-117.718;2023-04-05T07:49:00;100669.09;;;7.17;78.20
16525;BME280;8375;33.594;-117.718;2023-04-05T07:51:28;100667.84;;;7.24;78.40
16525;BME280;8375;33.594;-117.718;2023-04-05T07:54:00;100667.09;;;7.22;78.57
16525;BME280;8375;33.594;-117.718;2023-04-05T07:56:31;100666.94;;;7.25;79.11
16525;BME280;8375;33.594;-117.718;2023-04-05T07:59:02;100671.28;;;7.25;79.47
16525;BME280;8375;33.594;-117.718;2023-04-05T08:01:30;100672.34;;;7.21;78.71
16525;BME280;8375;33.594;-117.718;2023-04-05T08:03:59;100677.75;;;7.16;78.74
16525;BME280;8375;33.594;-117.718;2023-04-05T08:06:28;100673.78;;;7.10;78.43
16525;BME280;8375;33.594;-117.718;2023-04-05T08:08:57;100666.94;;;7.09;78.17
16525;BME280;8375;33.594;-117.718;2023-04-05T08:11:25;100666.09;;;7.09;78.94
16525;BME280;8375;33.594;-117.718;2023-04-05T08:13:54;100676.25;;;7.12;79.12
16525;BME280;8375;33.594;-117.718;2023-04-05T08:16:24;100680.59;;;7.11;79.28
16525;BME280;8375;33.594;-117.718;2023-04-05T08:18:53;100674.75;;;7.08;78.99
16525;BME280;8375;33.594;-117.718;2023-04-05T08:21:22;100667.28;;;7.03;78.77
16525;BME280;8375;33.594;-117.718;2023-04-05T08:23:52;100671.38;;;7.07;80.10
16525;BME280;8375;33.594;-117.718;2023-04-05T08:26:20;100668.09;;;7.03;79.56
16525;BME280;8375;33.594;-117.718;2023-04-05T08:28:49;100669.69;;;7.06;80.04
16525;BME280;8375;33.594;-117.718;2023-04-05T08:31:18;100675.19;;;7.00;78.62
16525;BME280;8375;33.594;-117.718;2023-04-05T08:33:49;100665.28;;;6.92;77.60
16525;BME280;8375;33.594;-117.718;2023-04-05T08:36:18;100665.97;;;6.96;78.64
16525;BME280;8375;33.594;-117.718;2023-04-05T08:38:46;100667.63;;;6.97;76.99
16525;BME280;8375;33.594;-117.718;2023-04-05T08:41:17;100664.13;;;6.98;77.18
16525;BME280;8375;33.594;-117.718;2023-04-05T08:43:56;100669.44;;;6.95;77.08
16525;BME280;8375;33.594;-117.718;2023-04-05T08:46:25;100662.28;;;7.00;78.88
16525;BME280;8375;33.594;-117.718;2023-04-05T08:48:56;100666.78;;;6.96;78.04
16525;BME280;8375;33.594;-117.718;2023-04-05T08:51:25;100661.94;;;6.90;77.01
16525;BME280;8375;33.594;-117.718;2023-04-05T08:53:54;100662.97;;;6.87;76.36
16525;BME280;8375;33.594;-117.718;2023-04-05T08:56:25;100656.28;;;6.83;75.50
16525;BME280;8375;33.594;-117.718;2023-04-05T08:58:59;100659.84;;;6.81;76.63
16525;BME280;8375;33.594;-117.718;2023-04-05T09:01:30;100667.84;;;6.76;76.65
16525;BME280;8375;33.594;-117.718;2023-04-05T09:04:05;100654.69;;;6.65;77.41
16525;BME280;8375;33.594;-117.718;2023-04-05T09:06:35;100654.69;;;6.65;78.23
16525;BME280;8375;33.594;-117.718;2023-04-05T09:09:05;100648.84;;;6.61;77.78
16525;BME280;8375;33.594;-117.718;2023-04-05T09:11:34;100638.69;;;6.58;77.48
16525;BME280;8375;33.594;-117.718;2023-04-05T09:14:03;100631.28;;;6.52;77.72
16525;BME280;8375;33.594;-117.718;2023-04-05T09:16:35;100633.03;;;6.51;78.72
16525;BME280;8375;33.594;-117.718;2023-04-05T09:19:06;100623.66;;;6.50;78.94
16525;BME280;8375;33.594;-117.718;2023-04-05T09:22:00;100632.28;;;6.49;79.67
16525;BME280;8375;33.594;-117.718;2023-04-05T09:24:36;100631.72;;;6.44;79.23
16525;BME280;8375;33.594;-117.718;2023-04-05T09:27:08;100637.09;;;6.39;78.04
16525;BME280;8375;33.594;-117.718;2023-04-05T09:29:38;100630.44;;;6.35;78.26
16525;BME280;8375;33.594;-117.718;2023-04-05T09:32:08;100633.91;;;6.34;78.96
16525;BME280;8375;33.594;-117.718;2023-04-05T09:34:39;100636.75;;;6.29;79.19
16525;BME280;8375;33.594;-117.718;2023-04-05T09:37:17;100636.91;;;6.26;78.28
16525;BME280;8375;33.594;-117.718;2023-04-05T09:39:47;100640.41;;;6.25;78.05
16525;BME280;8375;33.594;-117.718;2023-04-05T09:42:17;100636.47;;;6.18;77.61
16525;BME280;8375;33.594;-117.718;2023-04-05T09:44:49;100647.22;;;6.26;78.52
16525;BME280;8375;33.594;-117.718;2023-04-05T09:47:18;100634.34;;;6.26;78.49
16525;BME280;8375;33.594;-117.718;2023-04-05T09:49:49;100631.91;;;6.23;77.93
16525;BME280;8375;33.594;-117.718;2023-04-05T09:52:21;100629.94;;;6.28;79.19
16525;BME280;8375;33.594;-117.718;2023-04-05T09:54:52;100624.03;;;6.26;78.79
16525;BME280;8375;33.594;-117.718;2023-04-05T09:57:22;100627.50;;;6.25;78.89
16525;BME280;8375;33.594;-117.718;2023-04-05T09:59:52;100624.09;;;6.25;77.90
16525;BME280;8375;33.594;-117.718;2023-04-05T10:02:21;100626.22;;;6.16;78.22
16525;BME280;8375;33.594;-117.718;2023-04-05T10:04:51;100624.13;;;6.07;79.22
16525;BME280;8375;33.594;-117.718;2023-04-05T10:07:20;100621.69;;;6.04;79.61
16525;BME280;8375;33.594;-117.718;2023-04-05T10:09:49;100620.94;;;6.02;79.79
16525;BME280;8375;33.594;-117.718;2023-04-05T10:12:24;100610.72;;;6.00;79.60
16525;BME280;8375;33.594;-117.718;2023-04-05T10:14:54;100621.31;;;5.94;79.58
16525;BME280;8375;33.594;-117.718;2023-04-05T10:17:26;100619.97;;;5.87;79.98
16525;BME280;8375;33.594;-117.718;2023-04-05T10:20:06;100624.25;;;5.86;80.15
16525;BME280;8375;33.594;-117.718;2023-04-05T10:22:46;100613.19;;;5.84;80.41
16525;BME280;8375;33.594;-117.718;2023-04-05T10:25:24;100607.91;;;5.87;80.05
16525;BME280;8375;33.594;-117.718;2023-04-05T10:27:57;100609.81;;;5.84;80.42
16525;BME280;8375;33.594;-117.718;2023-04-05T10:30:33;100613.03;;;5.87;81.57
16525;BME280;8375;33.594;-117.718;2023-04-05T10:33:15;100616.31;;;5.91;83.08
16525;BME280;8375;33.594;-117.718;2023-04-05T10:35:58;100603.13;;;5.97;83.86
16525;BME280;8375;33.594;-117.718;2023-04-05T10:38:40;100595.44;;;5.96;82.92
16525;BME280;8375;33.594;-117.718;2023-04-05T10:41:13;100597.22;;;5.95;82.35
16525;BME280;8375;33.594;-117.718;2023-04-05T10:43:42;100603.44;;;5.91;81.80
16525;BME280;8375;33.594;-117.718;2023-04-05T10:46:12;100606.97;;;5.88;80.97
16525;BME280;8375;33.594;-117.718;2023-04-05T10:48:50;100597.69;;;5.86;80.07
16525;BME280;8375;33.594;-117.718;2023-04-05T10:51:25;100597.25;;;5.78;80.73
16525;BME280;8375;33.594;-117.718;2023-04-05T10:53:55;100596.53;;;5.74;81.41
16525;BME280;8375;33.594;-117.718;2023-04-05T10:56:25;100601.63;;;5.76;82.20
16525;BME280;8375;33.594;-117.718;2023-04-05T10:58:55;100608.59;;;5.73;83.00
16525;BME280;8375;33.594;-117.718;2023-04-05T11:01:25;100601.03;;;5.70;82.24
16525;BME280;8375;33.594;-117.718;2023-04-05T11:03:54;100597.75;;;5.67;81.58
16525;BME280;8375;33.594;-117.718;2023-04-05T11:06:31;100594.72;;;5.58;81.42
16525;BME280;8375;33.594;-117.718;2023-04-05T11:09:10;100598.16;;;5.59;82.32
16525;BME280;8375;33.594;-117.718;2023-04-05T11:11:41;100602.16;;;5.65;84.27
16525;BME280;8375;33.594;-117.718;2023-04-05T11:14:20;100594.72;;;5.58;83.24
16525;BME280;8375;33.594;-117.718;2023-04-05T11:16:52;100594.56;;;5.44;82.97
16525;BME280;8375;33.594;-117.718;2023-04-05T11:19:47;100594.97;;;5.36;83.48
16525;BME280;8375;33.594;-117.718;2023-04-05T11:22:27;100588.31;;;5.32;82.98
16525;BME280;8375;33.594;-117.718;2023-04-05T11:24:57;100597.00;;;5.29;83.78
16525;BME280;8375;33.594;-117.718;2023-04-05T11:27:28;100601.44;;;5.26;83.89
16525;BME280;8375;33.594;-117.718;2023-04-05T11:29:58;100592.13;;;5.23;84.37
16525;BME280;8375;33.594;-117.718;2023-04-05T11:32:38;100602.50;;;5.22;84.62
16525;BME280;8375;33.594;-117.718;2023-04-05T11:35:12;100606.44;;;5.29;86.03
16525;BME280;8375;33.594;-117.718;2023-04-05T11:38:05;100610.00;;;5.26;84.84
16525;BME280;8375;33.594;-117.718;2023-04-05T11:40:36;100611.38;;;5.34;87.63
16525;BME280;8375;33.594;-117.718;2023-04-05T11:43:07;100611.59;;;5.29;87.23
16525;BME280;8375;33.594;-117.718;2023-04-05T11:45:37;100603.25;;;5.24;86.78
16525;BME280;8375;33.594;-117.718;2023-04-05T11:48:08;100607.44;;;5.26;87.20
16525;BME280;8375;33.594;-117.718;2023-04-05T11:50:38;100603.09;;;5.27;87.47
16525;BME280;8375;33.594;-117.718;2023-04-05T11:53:09;100603.06;;;5.46;89.50
16525;BME280;8375;33.594;-117.718;2023-04-05T11:55:39;100606.94;;;5.55;87.73
16525;BME280;8375;33.594;-117.718;2023-04-05T11:58:14;100595.94;;;5.69;89.04
16525;BME280;8375;33.594;-117.718;2023-04-05T12:00:45;100598.16;;;5.77;87.84
16525;BME280;8375;33.594;-117.718;2023-04-05T12:03:14;100599.88;;;5.76;85.53
16525;BME280;8375;33.594;-117.718;2023-04-05T12:05:48;100599.66;;;5.81;85.02
16525;BME280;8375;33.594;-117.718;2023-04-05T12:08:19;100601.53;;;5.77;84.86
16525;BME280;8375;33.594;-117.718;2023-04-05T12:10:55;100603.66;;;5.86;86.55
16525;BME280;8375;33.594;-117.718;2023-04-05T12:13:31;100607.09;;;5.69;85.25
16525;BME280;8375;33.594;-117.718;2023-04-05T12:16:01;100611.47;;;5.85;89.78
16525;BME280;8375;33.594;-117.718;2023-04-05T12:18:31;100609.88;;;5.65;86.43
16525;BME280;8375;33.594;-117.718;2023-04-05T12:21:02;100610.72;;;5.48;86.48
16525;BME280;8375;33.594;-117.718;2023-04-05T12:23:33;100610.56;;;5.51;89.38
16525;BME280;8375;33.594;-117.718;2023-04-05T12:26:03;100611.63;;;5.47;88.85
16525;BME280;8375;33.594;-117.718;2023-04-05T12:28:48;100622.53;;;5.52;89.35
16525;BME280;8375;33.594;-117.718;2023-04-05T12:31:17;100619.19;;;5.32;86.21
16525;BME280;8375;33.594;-117.718;2023-04-05T12:33:46;100621.84;;;5.11;86.15
16525;BME280;8375;33.594;-117.718;2023-04-05T12:36:14;100622.47;;;5.17;87.50
16525;BME280;8375;33.594;-117.718;2023-04-05T12:38:45;100621.19;;;5.45;91.16
16525;BME280;8375;33.594;-117.718;2023-04-05T12:41:13;100628.19;;;5.41;88.32
16525;BME280;8375;33.594;-117.718;2023-04-05T12:43:42;100628.09;;;5.25;86.07
16525;BME280;8375;33.594;-117.718;2023-04-05T12:46:11;100629.22;;;5.19;86.38
16525;BME280;8375;33.594;-117.718;2023-04-05T12:48:49;100632.16;;;5.11;85.21
16525;BME280;8375;33.594;-117.718;2023-04-05T12:51:19;100635.25;;;5.01;85.55
16525;BME280;8375;33.594;-117.718;2023-04-05T12:53:49;100634.69;;;4.94;85.76
16525;BME280;8375;33.594;-117.718;2023-04-05T12:56:17;100637.25;;;4.94;86.30
16525;BME280;8375;33.594;-117.718;2023-04-05T12:58:48;100644.63;;;4.82;86.34